Time;durP1;ratioP1;P1;durP2;ratioP2;P2;SDS_P1;SDS_P2;PMS_P1;PMS_P2;Temp;Humidity;BMP_temperature;BMP_pressure;BME280_temperature;BME280_humidity;BME280_pressure;Samples;Min_cycle;Max_cycle;Signal;HPM_P1;HPM_P2
2021/04/10 00:00:40;;;;;;;7.45;4.63;;;11.50;34.10;;;;;;4974541;28;20061;-71
2021/04/10 00:03:07;;;;;;;9.43;4.50;;;11.40;63.30;;;;;;4974502;28;20023;-72
2021/04/10 00:05:33;;;;;;;7.57;4.25;;;11.40;99.90;;;;;;4988239;28;20026;-74
2021/04/10 00:07:59;;;;;;;4.43;4.00;;;11.30;99.90;;;;;;4994264;28;20077;-72
2021/04/10 00:10:27;;;;;;;11.43;4.93;;;11.40;99.90;;;;;;4987794;28;20494;-75
2021/04/10 00:12:53;;;;;;;7.68;3.95;;;11.30;99.90;;;;;;4976134;28;20035;-73
2021/04/10 00:15:19;;;;;;;6.68;3.40;;;11.20;99.90;;;;;;4974162;28;20376;-74
2021/04/10 00:17:45;;;;;;;3.92;3.30;;;11.30;99.90;;;;;;4989922;28;20038;-72
2021/04/10 00:20:14;;;;;;;4.70;2.97;;;11.20;99.90;;;;;;4978467;28;20376;-73
2021/04/10 00:22:41;;;;;;;7.40;3.15;;;11.10;99.90;;;;;;4976550;28;20018;-71
2021/04/10 00:25:08;;;;;;;6.40;2.67;;;11.00;99.90;;;;;;4978911;28;20037;-71
2021/04/10 00:27:34;;;;;;;8.00;2.63;;;11.00;99.90;;;;;;4978399;28;20058;-72
2021/04/10 00:29:59;;;;;;;8.75;4.22;;;10.90;99.90;;;;;;4977391;28;20049;-72
2021/04/10 00:32:25;;;;;;;7.40;4.18;;;11.00;99.90;;;;;;4979360;28;20391;-71
2021/04/10 00:34:50;;;;;;;8.45;4.10;;;11.00;99.90;;;;;;4980283;28;20031;-72
2021/04/10 00:37:16;;;;;;;7.88;3.60;;;11.00;99.90;;;;;;4998727;28;20030;-71
2021/04/10 00:39:42;;;;;;;9.52;4.38;;;11.00;99.90;;;;;;4986242;28;20035;-72
2021/04/10 00:42:08;;;;;;;9.07;4.50;;;11.20;99.90;;;;;;4978871;28;20037;-72
2021/04/10 00:44:34;;;;;;;7.72;3.95;;;11.30;99.90;;;;;;4979264;28;20031;-74
2021/04/10 00:46:59;;;;;;;6.32;2.92;;;11.20;99.90;;;;;;4991077;28;20041;-75
2021/04/10 00:49:25;;;;;;;4.45;2.10;;;11.20;99.90;;;;;;4978413;28;20022;-75
2021/04/10 00:51:51;;;;;;;5.32;2.30;;;11.60;86.40;;;;;;4980320;28;20168;-75
2021/04/10 00:54:17;;;;;;;4.97;2.45;;;11.70;55.50;;;;;;4979103;28;20030;-75
2021/04/10 00:56:42;;;;;;;5.28;2.53;;;11.80;46.80;;;;;;4978964;28;20057;-71
2021/04/10 00:59:08;;;;;;;3.53;2.15;;;11.80;43.40;;;;;;4978314;28;20031;-73
2021/04/10 01:01:34;;;;;;;4.72;2.25;;;12.00;11.40;;;;;;4960221;28;20045;-74
2021/04/10 01:03:59;;;;;;;3.15;2.38;;;12.20;1.00;;;;;;4993088;28;20081;-72
2021/04/10 01:06:26;;;;;;;6.47;3.47;;;12.10;1.00;;;;;;4988452;28;20067;-72
2021/04/10 01:08:52;;;;;;;7.45;2.92;;;12.10;1.00;;;;;;4981992;28;20034;-71
2021/04/10 01:11:43;;;;;;;3.78;2.60;;;12.10;1.00;;;;;;5001052;28;20022;-72
2021/04/10 01:14:35;;;;;;;7.47;3.08;;;12.10;2.00;;;;;;4992389;28;20392;-71
2021/04/10 01:17:12;;;;;;;5.63;2.05;;;12.00;11.60;;;;;;4996856;28;20031;-70
2021/04/10 01:20:10;;;;;;;5.85;2.63;;;11.90;6.30;;;;;;4960479;29;20094;-71
2021/04/10 01:22:44;;;;;;;2.22;1.40;;;12.00;1.00;;;;;;4942442;29;20488;-71
2021/04/10 01:25:30;;;;;;;2.95;1.80;;;12.10;1.00;;;;;;4960320;29;20106;-74
2021/04/10 01:27:58;;;;;;;4.70;2.13;;;12.20;1.00;;;;;;4962408;29;20400;-72
2021/04/10 01:30:26;;;;;;;4.00;1.77;;;12.30;1.00;;;;;;4982209;28;20610;-72
2021/04/10 01:33:03;;;;;;;3.13;1.50;;;12.30;1.00;;;;;;4989578;28;20038;-72
2021/04/10 01:35:35;;;;;;;5.63;1.60;;;12.30;1.00;;;;;;5000568;28;20090;-75
2021/04/10 01:38:03;;;;;;;4.55;1.20;;;12.30;1.00;;;;;;5000685;28;20037;-75
2021/04/10 01:40:31;;;;;;;3.30;1.23;;;12.40;1.00;;;;;;4990986;28;20038;-70
2021/04/10 01:42:58;;;;;;;7.03;1.42;;;12.60;1.00;;;;;;4991044;28;20035;-72
2021/04/10 01:45:26;;;;;;;2.55;1.20;;;12.60;1.00;;;;;;4972942;28;20125;-71
2021/04/10 01:47:56;;;;;;;2.97;1.10;;;12.70;1.00;;;;;;4964248;28;20059;-73
2021/04/10 01:50:23;;;;;;;2.67;1.25;;;12.80;1.00;;;;;;4985510;28;20034;-76
2021/04/10 01:52:50;;;;;;;3.75;1.58;;;12.80;1.00;;;;;;4996806;28;20065;-75
2021/04/10 01:55:17;;;;;;;4.03;1.38;;;12.80;1.00;;;;;;4985676;28;20031;-74
2021/04/10 01:57:43;;;;;;;3.88;1.00;;;12.80;1.00;;;;;;4981232;28;20037;-75
2021/04/10 02:00:11;;;;;;;2.95;1.50;;;12.70;1.00;;;;;;4977227;28;20027;-75
2021/04/10 02:02:39;;;;;;;3.20;1.40;;;12.70;1.00;;;;;;4983762;28;20058;-75
2021/04/10 02:05:07;;;;;;;2.38;1.00;;;12.60;1.00;;;;;;4984552;28;20051;-74
2021/04/10 02:07:34;;;;;;;2.00;1.25;;;12.60;1.00;;;;;;4987295;28;20050;-75
2021/04/10 02:10:03;;;;;;;3.13;1.50;;;12.50;1.00;;;;;;4957313;28;20449;-74
2021/04/10 02:12:32;;;;;;;4.15;1.10;;;12.70;1.00;;;;;;4987182;28;20066;-76
2021/04/10 02:15:02;;;;;;;3.03;1.20;;;12.50;1.00;;;;;;4984810;28;20029;-75
2021/04/10 02:17:28;;;;;;;3.35;1.55;;;12.50;1.00;;;;;;4980738;28;20066;-75
2021/04/10 02:19:54;;;;;;;2.92;1.23;;;12.50;1.00;;;;;;4988108;28;20034;-75
2021/04/10 02:22:22;;;;;;;1.73;1.00;;;12.30;1.00;;;;;;4985770;28;20081;-75
2021/04/10 02:24:48;;;;;;;3.25;1.25;;;12.30;1.00;;;;;;4985806;28;20026;-75
2021/04/10 02:27:14;;;;;;;2.03;1.70;;;12.40;1.00;;;;;;4962326;28;20065;-75
2021/04/10 02:29:39;;;;;;;5.55;1.60;;;12.40;1.00;;;;;;4976804;28;20023;-75
2021/04/10 02:32:07;;;;;;;2.55;1.20;;;12.40;1.00;;;;;;4984051;28;20029;-74
2021/04/10 02:34:39;;;;;;;2.63;1.17;;;12.50;1.00;;;;;;4983565;28;20061;-75
2021/04/10 02:37:06;;;;;;;1.90;0.98;;;12.40;1.00;;;;;;4991322;28;20453;-75
2021/04/10 02:39:33;;;;;;;5.55;1.15;;;12.30;1.00;;;;;;4989601;28;20040;-75
2021/04/10 02:42:02;;;;;;;5.15;1.38;;;12.40;1.00;;;;;;4998115;28;20034;-74
2021/04/10 02:44:35;;;;;;;6.72;1.33;;;12.30;1.00;;;;;;5009410;28;20034;-74
2021/04/10 02:47:06;;;;;;;2.90;1.10;;;12.30;1.00;;;;;;5001300;28;20082;-74
2021/04/10 02:49:36;;;;;;;5.78;1.27;;;12.30;1.00;;;;;;5000592;28;20018;-74
2021/04/10 02:52:02;;;;;;;2.40;1.20;;;12.30;1.00;;;;;;4985633;28;20089;-75
2021/04/10 02:54:31;;;;;;;3.83;1.33;;;12.30;1.00;;;;;;4973261;28;20452;-74
2021/04/10 02:57:12;;;;;;;3.05;1.00;;;12.20;1.00;;;;;;5054763;23;20103;-76
2021/04/10 02:59:39;;;;;;;3.22;1.20;;;12.20;1.00;;;;;;5040870;28;20412;-75
2021/04/10 03:02:06;;;;;;;4.45;1.10;;;12.20;1.00;;;;;;5024657;28;20053;-76
2021/04/10 03:04:33;;;;;;;5.50;1.27;;;12.30;1.00;;;;;;5053081;28;20029;-77
2021/04/10 03:06:59;;;;;;;3.83;1.35;;;12.30;1.00;;;;;;5041834;28;20029;-76
2021/04/10 03:09:26;;;;;;;2.92;1.13;;;12.30;1.00;;;;;;5043619;28;20167;-76
2021/04/10 03:11:52;;;;;;;4.32;1.08;;;12.30;1.00;;;;;;5043760;28;20100;-76
2021/04/10 03:14:18;;;;;;;3.17;1.08;;;12.20;1.00;;;;;;5033625;28;20125;-75
2021/04/10 03:16:46;;;;;;;2.30;1.08;;;12.20;1.00;;;;;;5044159;28;20025;-76
2021/04/10 03:19:13;;;;;;;3.42;1.30;;;12.20;1.00;;;;;;5053244;28;20037;-76
2021/04/10 03:21:39;;;;;;;2.75;1.17;;;12.20;6.10;;;;;;5047421;28;20025;-75
2021/04/10 03:24:06;;;;;;;3.13;1.30;;;12.20;3.10;;;;;;5053036;28;20044;-76
2021/04/10 03:26:32;;;;;;;3.22;1.10;;;12.30;5.20;;;;;;5045356;28;20021;-75
2021/04/10 03:28:58;;;;;;;3.50;1.05;;;12.30;8.80;;;;;;5054471;28;20033;-75
2021/04/10 03:31:24;;;;;;;2.58;1.00;;;12.40;14.60;;;;;;5042446;28;20570;-75
2021/04/10 03:33:50;;;;;;;2.92;1.02;;;12.40;21.80;;;;;;5041923;28;20105;-75
2021/04/10 03:36:16;;;;;;;1.20;0.95;;;12.40;30.40;;;;;;5049283;28;20025;-76
2021/04/10 03:38:42;;;;;;;3.75;1.40;;;12.40;48.00;;;;;;5070712;28;20021;-77
2021/04/10 03:41:08;;;;;;;2.72;1.25;;;12.40;77.30;;;;;;5053683;28;20036;-76
2021/04/10 03:43:34;;;;;;;2.13;1.00;;;12.40;95.60;;;;;;5042715;28;20026;-76
2021/04/10 03:46:01;;;;;;;2.47;0.82;;;12.40;99.90;;;;;;5040578;28;20102;-74
2021/04/10 03:48:31;;;;;;;4.85;1.98;;;12.40;99.90;;;;;;5048760;28;20119;-76
2021/04/10 03:51:00;;;;;;;2.85;1.10;;;12.30;99.90;;;;;;5023092;28;20033;-75
2021/04/10 03:53:26;;;;;;;1.58;1.33;;;12.30;99.90;;;;;;5046377;28;20025;-77
2021/04/10 03:55:52;;;;;;;3.25;1.30;;;12.20;99.90;;;;;;5043493;28;20087;-76
2021/04/10 03:58:17;;;;;;;2.40;1.15;;;12.20;99.90;;;;;;5053322;28;20033;-76
2021/04/10 04:00:43;;;;;;;4.20;1.05;;;12.20;99.90;;;;;;5065157;28;20033;-75
2021/04/10 04:03:09;;;;;;;1.23;0.90;;;12.20;99.90;;;;;;5043327;28;20477;-77
2021/04/10 04:05:34;;;;;;;2.35;1.17;;;12.20;99.90;;;;;;5047987;28;20029;-75
2021/04/10 04:08:00;;;;;;;3.78;2.25;;;12.20;99.90;;;;;;5047629;28;20092;-76
2021/04/10 04:10:26;;;;;;;2.17;0.98;;;12.10;1.00;;;;;;5045545;28;20095;-76
2021/04/10 04:12:51;;;;;;;1.67;1.10;;;12.10;1.00;;;;;;5053226;28;20102;-76
2021/04/10 04:15:17;;;;;;;2.53;1.00;;;12.10;1.00;;;;;;5024609;28;20488;-76
2021/04/10 04:17:43;;;;;;;3.05;0.85;;;12.10;1.00;;;;;;5027620;28;20036;-76
2021/04/10 04:20:09;;;;;;;2.35;1.30;;;12.10;1.00;;;;;;5023344;28;20120;-76
2021/04/10 04:22:34;;;;;;;2.95;1.02;;;12.10;1.00;;;;;;5026584;28;20021;-76
2021/04/10 04:25:00;;;;;;;4.25;0.90;;;12.10;1.00;;;;;;5049017;28;20034;-75
2021/04/10 04:27:26;;;;;;;2.15;0.95;;;12.10;1.00;;;;;;5045516;28;20525;-76
2021/04/10 04:29:54;;;;;;;1.20;0.90;;;12.10;1.00;;;;;;5064516;28;20036;-75
2021/04/10 04:32:21;;;;;;;2.72;1.10;;;12.00;2.50;;;;;;5047999;28;20105;-76
2021/04/10 04:34:47;;;;;;;2.45;0.93;;;12.00;49.70;;;;;;5034966;28;20035;-75
2021/04/10 04:37:13;;;;;;;3.33;1.02;;;12.00;85.80;;;;;;5050522;28;20032;-76
2021/04/10 04:39:38;;;;;;;2.15;0.88;;;12.00;99.90;;;;;;5043895;28;20022;-75
2021/04/10 04:42:04;;;;;;;3.47;1.42;;;11.90;99.90;;;;;;5021796;28;20350;-74
2021/04/10 04:44:30;;;;;;;2.35;1.23;;;11.90;99.90;;;;;;5039270;28;20029;-74
2021/04/10 04:46:55;;;;;;;4.43;1.02;;;11.90;99.90;;;;;;5043884;28;20029;-75
2021/04/10 04:49:21;;;;;;;3.65;1.05;;;11.90;99.90;;;;;;5044717;28;20029;-76
2021/04/10 04:51:46;;;;;;;1.98;0.90;;;11.80;99.90;;;;;;5044254;28;20025;-77
2021/04/10 04:54:12;;;;;;;2.45;1.13;;;11.80;99.90;;;;;;5046071;28;20048;-78
2021/04/10 04:56:38;;;;;;;3.97;1.05;;;11.80;99.90;;;;;;5040169;28;20030;-75
2021/04/10 04:59:03;;;;;;;2.70;1.13;;;11.80;99.90;;;;;;5024622;28;20029;-75
2021/04/10 05:01:29;;;;;;;3.85;2.13;;;11.80;1.00;;;;;;5041492;28;20037;-76
2021/04/10 05:03:55;;;;;;;4.40;0.70;;;11.80;99.90;;;;;;5024298;28;20040;-76
2021/04/10 05:06:20;;;;;;;3.38;0.80;;;11.90;99.90;;;;;;5049766;28;20037;-75
2021/04/10 05:08:46;;;;;;;5.20;0.90;;;11.80;99.90;;;;;;5040802;28;20025;-76
2021/04/10 05:11:11;;;;;;;2.15;1.25;;;11.80;99.90;;;;;;5049783;28;20538;-75
2021/04/10 05:13:37;;;;;;;3.38;1.00;;;11.70;99.90;;;;;;5045018;28;20025;-77
2021/04/10 05:16:03;;;;;;;2.83;1.05;;;11.60;99.90;;;;;;5052440;28;20033;-76
2021/04/10 05:18:28;;;;;;;2.33;1.00;;;11.50;67.80;;;;;;5054195;28;20040;-77
2021/04/10 05:20:54;;;;;;;2.78;0.90;;;11.40;99.90;;;;;;5069202;28;20033;-77
2021/04/10 05:23:24;;;;;;;3.38;0.90;;;11.30;99.90;;;;;;5046928;28;20048;-79
2021/04/10 05:25:51;;;;;;;2.33;1.33;;;11.20;99.90;;;;;;5061691;28;20017;-77
2021/04/10 05:28:17;;;;;;;3.53;1.35;;;11.20;1.00;;;;;;5075077;28;20029;-77
2021/04/10 05:30:43;;;;;;;1.67;1.02;;;11.20;1.00;;;;;;5054705;28;20045;-77
2021/04/10 05:33:09;;;;;;;3.72;0.95;;;11.20;1.00;;;;;;5067720;28;20084;-76
2021/04/10 05:35:35;;;;;;;4.20;1.27;;;11.20;1.00;;;;;;5057997;28;20084;-74
2021/04/10 05:38:02;;;;;;;2.60;1.30;;;11.20;1.00;;;;;;5045865;28;20037;-75
2021/04/10 05:40:28;;;;;;;9.23;1.65;;;11.20;99.90;;;;;;5053765;28;20328;-75
2021/04/10 05:42:53;;;;;;;1.42;1.10;;;11.30;99.90;;;;;;5048535;28;20116;-74
2021/04/10 05:45:19;;;;;;;5.97;1.45;;;11.40;11.30;;;;;;5050818;28;20112;-75
2021/04/10 05:47:45;;;;;;;3.05;1.25;;;11.40;15.70;;;;;;5044421;28;20033;-76
2021/04/10 05:50:11;;;;;;;1.58;0.95;;;11.30;99.90;;;;;;5052742;28;20021;-75
2021/04/10 05:52:37;;;;;;;2.63;1.75;;;11.40;1.00;;;;;;5046037;28;20021;-75
2021/04/10 05:55:05;;;;;;;3.35;1.15;;;11.40;1.00;;;;;;5044295;28;20039;-76
2021/04/10 05:57:31;;;;;;;2.03;1.02;;;11.40;1.00;;;;;;5029907;28;20016;-77
2021/04/10 05:59:57;;;;;;;1.33;0.80;;;11.40;1.00;;;;;;5070593;28;20037;-75
2021/04/10 06:02:22;;;;;;;6.20;1.27;;;11.40;99.90;;;;;;5062223;28;20106;-75
2021/04/10 06:04:48;;;;;;;3.05;1.65;;;11.40;85.60;;;;;;5051808;28;20458;-75
2021/04/10 06:07:14;;;;;;;3.17;1.23;;;11.40;99.90;;;;;;5046980;28;20033;-75
2021/04/10 06:09:39;;;;;;;2.40;0.98;;;11.40;60.50;;;;;;5055184;28;20017;-75
2021/04/10 06:12:05;;;;;;;2.10;1.23;;;11.50;99.90;;;;;;5047512;28;20040;-76
2021/04/10 06:14:31;;;;;;;6.68;1.27;;;11.70;99.90;;;;;;5055682;28;20580;-75
2021/04/10 06:16:56;;;;;;;4.45;1.10;;;11.70;17.80;;;;;;5055075;28;20056;-75
2021/04/10 06:19:22;;;;;;;3.30;2.05;;;11.70;1.00;;;;;;5044953;28;20029;-76
2021/04/10 06:21:48;;;;;;;3.00;0.98;;;11.70;1.00;;;;;;5045639;28;20036;-76
2021/04/10 06:24:15;;;;;;;2.55;1.20;;;11.70;1.00;;;;;;5046537;28;20026;-76
2021/04/10 06:26:43;;;;;;;3.90;1.33;;;11.60;99.90;;;;;;5046930;28;20104;-76
2021/04/10 06:29:10;;;;;;;2.33;1.30;;;11.60;1.00;;;;;;5054086;28;20527;-76
2021/04/10 06:31:35;;;;;;;2.38;1.00;;;11.60;1.00;;;;;;5043899;28;20419;-75
2021/04/10 06:34:01;;;;;;;2.15;1.10;;;11.60;9.90;;;;;;5046185;28;20032;-75
2021/04/10 06:36:27;;;;;;;2.72;1.52;;;11.60;1.00;;;;;;5046553;28;20029;-75
2021/04/10 06:38:53;;;;;;;2.58;1.10;;;11.60;99.90;;;;;;5046501;28;20828;-76
2021/04/10 06:41:20;;;;;;;4.68;1.38;;;11.60;1.00;;;;;;5044618;28;20021;-77
2021/04/10 06:43:46;;;;;;;3.38;1.10;;;11.60;12.80;;;;;;5046368;28;20528;-75
2021/04/10 06:46:12;;;;;;;3.47;0.80;;;11.70;1.00;;;;;;5025267;28;20060;-75
2021/04/10 06:48:39;;;;;;;4.40;1.00;;;11.70;99.90;;;;;;5046157;28;20090;-76
2021/04/10 06:51:05;;;;;;;2.38;1.20;;;11.80;1.00;;;;;;5047121;28;20021;-76
2021/04/10 06:53:33;;;;;;;3.65;1.65;;;11.80;1.00;;;;;;5040581;28;20072;-76
2021/04/10 06:56:02;;;;;;;5.07;1.23;;;11.80;1.00;;;;;;5054162;28;20420;-76
2021/04/10 06:58:55;;;;;;;1.85;1.20;;;11.80;99.90;;;;;;5045252;28;20469;-77
2021/04/10 07:01:21;;;;;;;3.75;1.48;;;11.80;1.00;;;;;;5065150;28;20046;-75
2021/04/10 07:03:51;;;;;;;3.63;1.58;;;11.80;6.50;;;;;;5067074;28;20043;-75
2021/04/10 07:06:18;;;;;;;3.08;1.25;;;11.80;10.60;;;;;;5055785;28;20053;-76
2021/04/10 07:08:44;;;;;;;4.15;1.10;;;11.80;99.90;;;;;;5052198;28;20465;-76
2021/04/10 07:11:11;;;;;;;2.13;1.52;;;11.90;99.90;;;;;;5072991;28;20024;-76
2021/04/10 07:13:37;;;;;;;3.60;1.15;;;11.80;1.00;;;;;;5060408;28;20037;-75
2021/04/10 07:16:02;;;;;;;3.13;1.25;;;11.80;99.90;;;;;;5066253;28;20021;-76
2021/04/10 07:18:29;;;;;;;5.25;1.30;;;11.80;1.00;;;;;;5060132;28;20029;-74
2021/04/10 07:21:17;;;;;;;2.72;1.20;;;11.80;1.00;;;;;;5056518;28;20040;-76
2021/04/10 07:23:51;;;;;;;2.00;1.35;;;11.80;1.00;;;;;;5054359;28;20029;-75
2021/04/10 07:26:19;;;;;;;1.88;1.05;;;11.90;99.90;;;;;;5027265;28;20028;-76
2021/04/10 07:28:46;;;;;;;1.20;0.88;;;11.90;99.90;;;;;;5034754;28;20021;-74
2021/04/10 07:31:16;;;;;;;2.05;1.08;;;12.00;1.00;;;;;;5043278;28;20039;-76
2021/04/10 07:33:43;;;;;;;1.80;1.23;;;12.00;99.90;;;;;;5034334;28;20404;-75
2021/04/10 07:36:10;;;;;;;3.78;1.23;;;12.00;99.90;;;;;;5048901;28;20036;-76
2021/04/10 07:38:40;;;;;;;1.88;1.25;;;12.00;1.00;;;;;;5044819;28;20036;-77
2021/04/10 07:41:26;;;;;;;2.22;1.83;;;11.90;1.00;;;;;;5026866;28;20029;-76
2021/04/10 07:43:51;;;;;;;2.75;1.15;;;11.90;1.00;;;;;;5033624;28;20041;-76
2021/04/10 07:46:26;;;;;;;1.45;0.95;;;11.90;14.90;;;;;;5042190;28;20429;-75
2021/04/10 07:49:09;;;;;;;2.30;0.90;;;11.80;18.80;;;;;;5033943;28;20037;-75
2021/04/10 07:51:52;;;;;;;2.97;1.27;;;11.80;99.90;;;;;;5042800;28;20075;-77
2021/04/10 07:54:27;;;;;;;2.75;1.00;;;11.80;99.90;;;;;;5044095;28;20392;-76
2021/04/10 07:56:56;;;;;;;1.35;0.90;;;11.80;99.90;;;;;;5046383;28;20047;-76
2021/04/10 07:59:22;;;;;;;1.27;1.00;;;11.80;99.90;;;;;;5045561;28;20039;-74
2021/04/10 08:01:48;;;;;;;2.05;1.10;;;11.90;33.50;;;;;;5053553;28;20060;-74
2021/04/10 08:04:15;;;;;;;2.53;1.00;;;11.80;99.90;;;;;;5045354;28;20061;-76
2021/04/10 08:06:59;;;;;;;3.15;0.95;;;11.70;99.90;;;;;;5045769;28;20091;-74
2021/04/10 08:09:36;;;;;;;4.68;1.30;;;11.80;1.00;;;;;;5052132;28;20029;-75
2021/04/10 08:12:06;;;;;;;1.25;0.90;;;11.80;1.00;;;;;;5059367;28;20045;-75
2021/04/10 08:14:45;;;;;;;1.40;1.30;;;11.80;17.00;;;;;;5058696;28;20041;-76
2021/04/10 08:17:34;;;;;;;1.30;1.20;;;11.80;99.90;;;;;;5047604;28;20551;-75
2021/04/10 08:20:26;;;;;;;1.50;0.77;;;11.80;99.90;;;;;;5054783;28;20427;-76
2021/04/10 08:23:12;;;;;;;4.40;1.42;;;11.70;1.00;;;;;;5053102;28;20063;-77
2021/04/10 08:25:37;;;;;;;1.88;1.10;;;11.80;66.20;;;;;;5041317;28;20053;-76
2021/04/10 08:28:03;;;;;;;1.60;1.00;;;11.80;99.90;;;;;;5051696;28;20409;-76
2021/04/10 08:30:29;;;;;;;2.63;1.00;;;11.80;99.90;;;;;;5040388;28;20035;-76
2021/04/10 08:32:54;;;;;;;2.30;1.10;;;11.80;99.90;;;;;;5045603;28;20025;-75
2021/04/10 08:35:21;;;;;;;2.15;1.20;;;11.90;99.90;;;;;;5048336;28;20048;-73
2021/04/10 08:37:53;;;;;;;1.25;1.00;;;12.00;99.90;;;;;;5044331;28;20059;-73
2021/04/10 08:40:25;;;;;;;2.55;1.25;;;12.00;10.90;;;;;;5033017;28;20108;-73
2021/04/10 08:42:54;;;;;;;7.03;1.02;;;12.00;67.00;;;;;;5051093;28;20035;-72
2021/04/10 08:45:30;;;;;;;3.00;1.00;;;12.10;99.90;;;;;;5052455;28;20028;-72
2021/04/10 08:48:00;;;;;;;3.30;1.52;;;12.10;99.90;;;;;;5052254;28;20028;-72
2021/04/10 08:50:27;;;;;;;3.90;0.80;;;12.20;1.00;;;;;;5052964;28;20017;-73
2021/04/10 08:52:53;;;;;;;2.28;1.10;;;12.30;99.90;;;;;;5052221;28;20053;-74
2021/04/10 08:55:19;;;;;;;1.20;0.70;;;12.40;1.00;;;;;;5074541;22;20373;-76
2021/04/10 08:57:47;;;;;;;2.60;1.15;;;12.30;6.70;;;;;;5015563;28;20068;-77
2021/04/10 09:00:16;;;;;;;6.45;0.93;;;12.10;1.00;;;;;;5006345;28;20018;-72
2021/04/10 09:03:08;;;;;;;4.13;1.00;;;12.10;1.00;;;;;;5012954;28;20030;-74
2021/04/10 09:05:51;;;;;;;5.80;1.23;;;12.20;1.00;;;;;;5010114;28;20046;-74
2021/04/10 09:08:27;;;;;;;2.15;1.40;;;12.20;99.90;;;;;;4996137;28;20080;-75
2021/04/10 09:10:55;;;;;;;2.92;0.90;;;12.20;99.90;;;;;;5007919;28;20028;-74
2021/04/10 09:13:21;;;;;;;1.10;0.80;;;12.20;99.90;;;;;;5013561;28;20026;-74
2021/04/10 09:15:47;;;;;;;1.13;0.98;;;12.30;99.90;;;;;;5013685;28;20096;-75
2021/04/10 09:18:14;;;;;;;1.48;0.85;;;12.30;1.00;;;;;;4995543;28;20030;-75
2021/04/10 09:20:48;;;;;;;2.90;1.02;;;12.30;99.90;;;;;;5014428;28;20026;-74
2021/04/10 09:23:29;;;;;;;3.40;1.00;;;12.40;99.90;;;;;;5013370;28;20041;-74
2021/04/10 09:26:15;;;;;;;4.18;0.80;;;12.40;99.90;;;;;;5013325;28;20076;-73
2021/04/10 09:28:55;;;;;;;1.73;0.90;;;12.50;99.90;;;;;;5006439;28;20147;-74
2021/04/10 09:31:40;;;;;;;1.75;0.82;;;12.60;99.90;;;;;;4999209;28;20045;-75
2021/04/10 09:34:47;;;;;;;0.82;0.80;;;12.40;33.10;;;;;;4994284;28;20121;-75
2021/04/10 09:37:19;;;;;;;1.50;0.90;;;12.40;1.00;;;;;;5013020;28;20871;-74
2021/04/10 09:39:56;;;;;;;3.25;0.88;;;12.40;94.10;;;;;;5003027;28;20030;-74
2021/04/10 09:42:34;;;;;;;3.47;0.82;;;12.40;84.80;;;;;;5012549;28;20088;-74
2021/04/10 09:45:09;;;;;;;1.95;0.80;;;12.40;1.00;;;;;;5022751;28;20481;-73
2021/04/10 09:47:54;;;;;;;1.10;0.95;;;12.50;99.90;;;;;;5024153;28;20026;-74
2021/04/10 09:50:20;;;;;;;1.52;0.75;;;12.50;99.90;;;;;;4999785;28;20021;-73
2021/04/10 09:52:59;;;;;;;1.73;0.80;;;12.60;99.90;;;;;;5017072;28;20029;-73
2021/04/10 09:55:28;;;;;;;2.13;0.93;;;12.60;99.90;;;;;;5016172;28;20034;-72
2021/04/10 09:57:58;;;;;;;3.95;1.00;;;12.60;99.90;;;;;;5012824;28;20030;-73
2021/04/10 10:00:33;;;;;;;2.15;1.00;;;12.80;31.30;;;;;;5005569;28;20032;-74
2021/04/10 10:03:00;;;;;;;3.30;1.25;;;12.80;27.20;;;;;;5020425;28;20033;-76
2021/04/10 10:05:43;;;;;;;2.83;0.90;;;12.90;1.00;;;;;;5019693;28;20025;-76
2021/04/10 10:08:14;;;;;;;1.65;0.82;;;12.90;99.90;;;;;;5017201;28;20077;-74
2021/04/10 10:10:41;;;;;;;1.58;1.23;;;12.80;1.00;;;;;;4999297;28;20030;-74
2021/04/10 10:13:09;;;;;;;3.25;1.42;;;12.80;1.00;;;;;;5021164;28;20018;-74
2021/04/10 10:15:35;;;;;;;5.28;0.90;;;12.80;1.00;;;;;;5025054;28;20030;-74
2021/04/10 10:18:33;;;;;;;2.88;1.02;;;12.90;1.00;;;;;;5021435;28;20523;-77
2021/04/10 10:21:19;;;;;;;0.90;0.70;;;13.00;99.90;;;;;;5008482;28;20038;-72
2021/04/10 10:23:56;;;;;;;1.65;0.98;;;13.00;1.00;;;;;;4995945;28;20030;-70
2021/04/10 10:26:22;;;;;;;1.98;1.00;;;13.10;99.90;;;;;;4995321;28;20525;-70
2021/04/10 10:28:49;;;;;;;1.83;0.90;;;13.20;99.90;;;;;;4995173;28;20061;-69
2021/04/10 10:31:18;;;;;;;1.77;0.82;;;13.30;99.90;;;;;;4978403;28;20053;-69
2021/04/10 10:33:45;;;;;;;2.97;0.85;;;13.40;99.90;;;;;;4999494;28;20371;-69
2021/04/10 10:36:13;;;;;;;2.13;0.70;;;13.50;57.10;;;;;;5013218;28;20101;-69
2021/04/10 10:38:42;;;;;;;3.38;0.95;;;13.60;1.00;;;;;;5013733;28;20018;-68
2021/04/10 10:41:09;;;;;;;2.70;0.80;;;13.70;1.00;;;;;;5006342;28;20031;-70
2021/04/10 10:43:36;;;;;;;1.52;0.82;;;13.80;99.90;;;;;;5001251;28;20029;-71
2021/04/10 10:46:04;;;;;;;0.80;0.75;;;13.80;99.90;;;;;;5003186;28;20061;-71
2021/04/10 10:48:29;;;;;;;9.00;2.45;;;13.70;99.90;;;;;;5006546;28;20544;-71
2021/04/10 10:51:05;;;;;;;13.52;3.78;;;13.70;99.90;;;;;;5005545;28;20031;-78
2021/04/10 10:53:42;;;;;;;5.30;1.27;;;13.70;99.90;;;;;;5012441;28;20071;-75
2021/04/10 10:56:11;;;;;;;1.75;0.88;;;13.80;99.90;;;;;;4992720;28;20109;-75
2021/04/10 10:58:40;;;;;;;2.30;1.35;;;13.80;99.90;;;;;;5003666;28;20045;-74
2021/04/10 11:01:16;;;;;;;3.50;0.95;;;13.90;99.90;;;;;;5007163;28;20382;-74
2021/04/10 11:03:53;;;;;;;1.52;0.70;;;14.10;99.90;;;;;;5014847;28;20026;-74
2021/04/10 11:06:22;;;;;;;1.88;1.00;;;14.30;99.90;;;;;;5015310;28;20026;-76
2021/04/10 11:08:48;;;;;;;4.00;1.60;;;14.50;99.90;;;;;;4996825;28;20035;-76
2021/04/10 11:11:15;;;;;;;1.83;0.98;;;14.60;84.80;;;;;;5014495;28;20022;-74
2021/04/10 11:13:45;;;;;;;1.85;1.20;;;14.70;36.80;;;;;;5020534;28;20018;-74
2021/04/10 11:16:11;;;;;;;7.50;0.90;;;14.80;1.00;;;;;;5020140;28;20022;-75
2021/04/10 11:18:37;;;;;;;3.22;1.08;;;15.00;1.00;;;;;;5020670;28;20096;-76
2021/04/10 11:21:14;;;;;;;8.63;1.65;;;15.10;1.00;;;;;;5004734;28;20068;-75
2021/04/10 11:23:55;;;;;;;2.20;1.00;;;15.20;1.00;;;;;;5017511;28;20034;-74
2021/04/10 11:26:31;;;;;;;3.85;1.30;;;15.40;1.00;;;;;;5006877;28;20029;-73
2021/04/10 11:29:14;;;;;;;3.92;1.92;;;15.30;99.90;;;;;;5008386;28;20030;-74
2021/04/10 11:31:40;;;;;;;2.38;0.82;;;15.30;99.90;;;;;;5004696;28;20030;-75
2021/04/10 11:34:31;;;;;;;1.15;0.70;;;15.50;99.90;;;;;;4990368;28;20397;-75
2021/04/10 11:36:58;;;;;;;5.28;0.85;;;15.70;99.90;;;;;;5000659;28;20045;-74
2021/04/10 11:39:25;;;;;;;5.43;0.77;;;16.00;99.90;;;;;;5007447;28;20034;-77
2021/04/10 11:41:54;;;;;;;3.00;0.95;;;16.00;99.90;;;;;;5013800;28;20123;-78
2021/04/10 11:44:22;;;;;;;3.60;0.80;;;16.40;99.90;;;;;;4993081;28;20510;-75
2021/04/10 11:46:57;;;;;;;1.60;0.80;;;16.50;99.90;;;;;;4979651;28;20116;-73
2021/04/10 11:49:24;;;;;;;1.55;0.80;;;16.30;99.90;;;;;;4989471;28;20068;-74
2021/04/10 11:51:50;;;;;;;1.23;0.90;;;16.20;99.90;;;;;;4990933;28;20026;-73
2021/04/10 11:54:32;;;;;;;3.05;1.00;;;16.30;99.90;;;;;;5005527;28;20085;-75
2021/04/10 11:56:58;;;;;;;6.53;0.98;;;16.50;99.90;;;;;;4996182;28;20447;-76
2021/04/10 11:59:34;;;;;;;0.95;0.82;;;16.50;99.90;;;;;;5003631;28;20109;-75
2021/04/10 12:02:01;;;;;;;2.30;1.08;;;16.50;99.90;;;;;;4996849;28;20108;-74
2021/04/10 12:04:36;;;;;;;1.13;1.05;;;16.50;99.90;;;;;;4996042;28;20077;-74
2021/04/10 12:07:10;;;;;;;0.93;0.93;;;16.70;99.90;;;;;;4993561;28;20032;-75
2021/04/10 12:09:41;;;;;;;2.47;0.60;;;16.50;99.90;;;;;;5004969;28;20053;-73
2021/04/10 12:12:11;;;;;;;1.60;1.02;;;16.60;99.90;;;;;;4993596;28;20065;-75
2021/04/10 12:14:40;;;;;;;4.72;1.40;;;16.60;99.90;;;;;;4995632;28;20137;-74
2021/04/10 12:17:06;;;;;;;1.98;0.88;;;16.90;99.90;;;;;;4999132;28;20105;-75
2021/04/10 12:19:32;;;;;;;3.42;0.90;;;16.90;99.90;;;;;;4994778;28;20022;-77
2021/04/10 12:21:58;;;;;;;1.30;0.85;;;16.70;99.90;;;;;;5002635;28;20504;-77
2021/04/10 12:24:24;;;;;;;5.30;2.70;;;16.80;99.90;;;;;;4991075;28;20553;-74
2021/04/10 12:26:49;;;;;;;3.58;1.50;;;17.00;99.90;;;;;;4992991;28;20065;-73
2021/04/10 12:29:15;;;;;;;2.00;1.70;;;17.20;99.90;;;;;;5000962;28;20026;-76
2021/04/10 12:31:41;;;;;;;1.88;1.27;;;16.90;99.90;;;;;;4998799;28;20034;-75
2021/04/10 12:34:07;;;;;;;3.92;1.05;;;17.10;99.90;;;;;;4993352;28;20034;-76
2021/04/10 12:36:33;;;;;;;1.60;1.02;;;17.00;99.90;;;;;;4981799;28;20397;-74
2021/04/10 12:38:59;;;;;;;1.70;0.90;;;17.10;99.90;;;;;;5012151;28;20030;-74
2021/04/10 12:41:26;;;;;;;2.50;1.40;;;17.00;99.90;;;;;;5004086;28;20038;-75
2021/04/10 12:43:52;;;;;;;4.80;0.80;;;17.20;99.90;;;;;;5005446;28;20058;-72
2021/04/10 12:46:19;;;;;;;1.35;0.80;;;17.00;99.90;;;;;;5002655;28;20057;-73
2021/04/10 12:48:45;;;;;;;1.40;0.68;;;16.90;99.90;;;;;;4996965;28;20060;-75
2021/04/10 12:51:11;;;;;;;1.85;0.90;;;17.20;99.90;;;;;;4998279;28;20488;-75
2021/04/10 12:53:37;;;;;;;1.00;0.75;;;17.40;99.90;;;;;;4999491;28;20026;-73
2021/04/10 12:56:03;;;;;;;0.80;0.65;;;17.60;99.90;;;;;;4995330;28;20027;-74
2021/04/10 12:58:28;;;;;;;1.52;0.40;;;18.10;96.40;;;;;;5017952;28;20045;-73
2021/04/10 13:00:54;;;;;;;2.03;0.60;;;18.40;77.80;;;;;;5007935;28;20029;-75